Chapman Ranch, Texas
Current Conditions -  °F | °C
As of 8:56 AM on Thursday 30 Oct 2014 (Local Time) from KNGP Reporting Station
Scattered Clouds Scattered Clouds  
Wind Chill: 77°   Ceiling: Unl
Heat Index: 78°   Visibility: 10mi
Dew Point: 75°   Wind: 10mph
Humidity: 94%   Direction: 50°NE
Pressure: 30.08"   Gusts: NA
Location:  27.59°N, 97.45°W
Report Text: KNGP 301356Z 05009KT 10SM FEW007 FEW028 SCT100 25/24 A3008 RMK AO2 SLP186 TCU DSNT SE T02500239
Loading
Personal Weather Stations






























Interactive Weather Map
Tropical Storm Tracking
New forecast layout! Learn more

10-Day Weather Forecast

Advertisements
Track Severe Weather on mobile